createdAt,value
2018-12-31T00:02:52.227Z,99734.90
2018-12-31T00:06:57.916Z,99728.86
2018-12-31T00:11:03.622Z,99729.36
2018-12-31T00:15:09.377Z,99734.16
2018-12-31T00:19:15.039Z,99739.12
2018-12-31T00:23:20.719Z,99738.97
2018-12-31T00:27:26.405Z,99745.41
2018-12-31T00:31:32.121Z,99754.17
2018-12-31T00:35:37.785Z,99755.52
2018-12-31T00:39:43.478Z,99750.13
2018-12-31T00:43:49.190Z,99746.98
2018-12-31T00:47:55.465Z,99735.78
2018-12-31T00:52:01.125Z,99736.14
2018-12-31T01:02:33.993Z,99731.56
2018-12-31T01:06:39.834Z,99729.95
2018-12-31T01:10:46.428Z,99735.73
2018-12-31T01:14:52.185Z,99742.30
2018-12-31T01:18:57.937Z,99736.73
2018-12-31T01:28:29.750Z,99736.24
2018-12-31T01:32:35.426Z,99745.94
2018-12-31T01:36:41.101Z,99738.23
2018-12-31T01:40:46.843Z,99741.34
2018-12-31T01:44:52.524Z,99743.70
2018-12-31T01:48:58.208Z,99748.34
2018-12-31T01:53:03.910Z,99731.50
2018-12-31T01:57:09.597Z,99728.41
2018-12-31T02:01:15.333Z,99724.88
2018-12-31T02:05:21.041Z,99723.14
2018-12-31T02:09:27.701Z,99723.48
2018-12-31T02:13:33.374Z,99714.96
2018-12-31T02:17:40.048Z,99710.31
2018-12-31T02:21:45.736Z,99714.96
2018-12-31T02:25:51.512Z,99711.74
2018-12-31T02:29:57.245Z,99724.30
2018-12-31T02:34:03.039Z,99712.98
2018-12-31T02:38:08.718Z,99711.63
2018-12-31T02:42:14.390Z,99707.98
2018-12-31T02:46:20.148Z,99717.36
2018-12-31T02:50:25.847Z,99719.25
2018-12-31T02:54:31.533Z,99716.55
2018-12-31T02:58:37.220Z,99713.14
2018-12-31T03:02:42.901Z,99714.20
2018-12-31T03:06:48.601Z,99702.38
2018-12-31T03:10:54.245Z,99698.78
2018-12-31T03:14:59.928Z,99700.08
2018-12-31T03:19:05.612Z,99690.78
2018-12-31T03:23:11.301Z,99689.18
2018-12-31T03:27:17.015Z,99682.19
2018-12-31T03:31:34.933Z,99689.43
2018-12-31T03:40:42.108Z,99691.41
2018-12-31T03:45:26.743Z,99683.58
2018-12-31T03:49:44.979Z,99681.92
2018-12-31T03:54:10.008Z,99691.94
2018-12-31T03:58:28.007Z,99693.34
2018-12-31T04:02:53.040Z,99690.05
2018-12-31T04:07:11.189Z,99689.43
2018-12-31T04:20:49.343Z,99692.60
2018-12-31T04:25:07.054Z,99691.91
2018-12-31T04:29:32.045Z,99684.55
2018-12-31T04:33:49.567Z,99676.56
2018-12-31T04:38:14.610Z,99664.17
2018-12-31T04:42:34.251Z,99663.17
2018-12-31T04:46:59.279Z,99664.18
2018-12-31T04:51:16.997Z,99663.90
2018-12-31T04:55:44.513Z,99660.27
2018-12-31T05:00:09.164Z,99653.02
2018-12-31T05:04:34.204Z,99644.84
2018-12-31T05:14:56.093Z,99637.58
2018-12-31T05:24:55.085Z,99644.03
2018-12-31T05:29:52.046Z,99634.35
2018-12-31T05:34:55.638Z,99628.89
2018-12-31T05:39:52.665Z,99626.95
2018-12-31T05:44:56.263Z,99649.53
2018-12-31T05:49:53.647Z,99656.34
2018-12-31T05:54:57.247Z,99656.55
2018-12-31T05:59:54.260Z,99660.09
2018-12-31T06:04:50.794Z,99675.86
2018-12-31T06:09:47.925Z,99676.92
2018-12-31T06:14:47.757Z,99689.36
2018-12-31T06:19:51.357Z,99680.25
2018-12-31T06:24:48.419Z,99676.92
2018-12-31T06:29:52.005Z,99680.06
2018-12-31T06:39:51.634Z,99697.02
2018-12-31T06:44:48.097Z,99699.48
2018-12-31T06:49:51.696Z,99706.39
2018-12-31T07:04:58.593Z,99724.23
2018-12-31T07:14:53.634Z,99738.58
2018-12-31T07:19:57.220Z,99743.23
2018-12-31T07:24:53.688Z,99741.13
2018-12-31T07:35:53.445Z,99741.67
2018-12-31T07:40:18.475Z,99743.58
2018-12-31T07:44:36.137Z,99745.81
2018-12-31T07:49:01.235Z,99755.61
2018-12-31T07:53:18.895Z,99751.93
2018-12-31T07:57:43.975Z,99761.11
2018-12-31T08:02:01.637Z,99763.63
2018-12-31T08:06:19.501Z,99762.79
2018-12-31T08:10:43.576Z,99769.58
2018-12-31T08:15:01.599Z,99767.48
2018-12-31T08:19:26.637Z,99771.39
2018-12-31T08:23:44.229Z,99770.32
2018-12-31T08:28:09.270Z,99765.25
2018-12-31T08:32:27.005Z,99772.66
2018-12-31T08:36:52.062Z,99770.36
2018-12-31T08:41:09.821Z,99776.56
2018-12-31T08:45:34.851Z,99777.76
2018-12-31T08:49:52.467Z,99786.72
2018-12-31T08:54:17.477Z,99786.23
2018-12-31T08:58:35.276Z,99792.11
2018-12-31T09:03:00.309Z,99797.63
2018-12-31T09:07:18.135Z,99796.55
2018-12-31T09:11:43.155Z,99799.00
2018-12-31T09:15:59.077Z,99795.48
2018-12-31T09:20:24.106Z,99777.70
2018-12-31T09:24:44.751Z,99781.91
2018-12-31T09:29:50.309Z,99771.87
2018-12-31T09:34:46.814Z,99767.25
2018-12-31T09:39:50.420Z,99759.93
2018-12-31T09:44:46.835Z,99767.75
2018-12-31T10:00:49.186Z,99770.46
2018-12-31T10:10:49.282Z,99780.39
2018-12-31T10:15:48.960Z,99784.88
2018-12-31T10:19:54.660Z,99782.77
2018-12-31T10:24:48.628Z,99786.24
2018-12-31T10:33:38.318Z,99772.84
2018-12-31T10:37:56.365Z,99762.94
2018-12-31T10:42:21.425Z,99762.75
2018-12-31T10:46:39.596Z,99759.42
2018-12-31T10:55:41.591Z,99754.03
2018-12-31T11:00:01.256Z,99752.20
2018-12-31T11:04:27.274Z,99765.47
2018-12-31T11:08:45.428Z,99759.88
2018-12-31T11:13:10.473Z,99754.27
2018-12-31T11:17:28.319Z,99751.56
2018-12-31T11:21:53.377Z,99747.91
2018-12-31T11:26:11.520Z,99739.20
2018-12-31T11:30:31.146Z,99733.00
2018-12-31T11:44:09.457Z,99720.00
2018-12-31T11:48:27.326Z,99716.11
2018-12-31T11:52:52.348Z,99716.74
2018-12-31T11:57:10.150Z,99707.99
2018-12-31T12:01:28.123Z,99706.64
2018-12-31T12:05:46.362Z,99703.14
2018-12-31T12:10:04.665Z,99708.59
2018-12-31T12:14:22.938Z,99700.59
2018-12-31T12:18:48.298Z,99701.00
2018-12-31T12:22:53.978Z,99695.92
2018-12-31T12:26:59.734Z,99692.61
2018-12-31T12:31:05.445Z,99691.47
2018-12-31T12:35:11.153Z,99686.20
2018-12-31T12:39:16.833Z,99693.38
2018-12-31T12:43:22.548Z,99680.39
2018-12-31T12:47:28.246Z,99681.94
2018-12-31T12:51:33.935Z,99686.80
2018-12-31T12:55:39.660Z,99683.48
2018-12-31T12:59:45.338Z,99687.57
2018-12-31T13:03:51.038Z,99683.30
2018-12-31T13:07:56.754Z,99680.40
2018-12-31T13:12:02.464Z,99679.63
2018-12-31T13:16:08.178Z,99675.57
2018-12-31T13:20:13.917Z,99685.30
2018-12-31T13:24:19.612Z,99676.34
2018-12-31T13:28:25.610Z,99678.91
2018-12-31T13:32:31.335Z,99683.00
2018-12-31T13:36:37.029Z,99677.75
2018-12-31T13:40:42.806Z,99675.63
2018-12-31T13:44:48.502Z,99681.08
2018-12-31T13:48:54.206Z,99683.80
2018-12-31T13:52:59.921Z,99678.14
2018-12-31T13:57:05.638Z,99693.12
2018-12-31T14:01:11.661Z,99698.00
2018-12-31T14:05:17.458Z,99696.63
2018-12-31T14:09:23.173Z,99700.13
2018-12-31T14:13:28.909Z,99703.83
2018-12-31T14:17:34.612Z,99705.97
2018-12-31T14:21:40.304Z,99709.04
2018-12-31T14:25:46.001Z,99712.53
2018-12-31T14:29:51.694Z,99714.86
2018-12-31T14:33:57.396Z,99707.08
2018-12-31T14:38:03.102Z,99710.17
2018-12-31T14:42:08.825Z,99709.17
2018-12-31T14:46:14.814Z,99714.38
2018-12-31T14:50:20.517Z,99714.58
2018-12-31T14:54:26.211Z,99721.02
2018-12-31T14:58:31.934Z,99719.11
2018-12-31T15:02:37.635Z,99725.16
2018-12-31T15:06:43.411Z,99735.46
2018-12-31T15:10:49.117Z,99752.61
2018-12-31T15:14:54.797Z,99753.17
2018-12-31T15:19:00.573Z,99753.38
2018-12-31T15:23:06.358Z,99752.80
2018-12-31T15:27:12.083Z,99755.66
2018-12-31T15:31:17.810Z,99752.16
2018-12-31T15:35:23.498Z,99751.16
2018-12-31T15:39:29.197Z,99751.36
2018-12-31T15:43:34.955Z,99739.89
2018-12-31T15:47:40.679Z,99751.75
2018-12-31T15:51:46.728Z,99756.05
2018-12-31T15:55:52.416Z,99756.60
2018-12-31T15:59:58.128Z,99772.94
2018-12-31T16:04:03.838Z,99767.90
2018-12-31T16:08:09.535Z,99780.58
2018-12-31T16:12:15.216Z,99782.58
2018-12-31T16:16:20.912Z,99777.50
2018-12-31T16:20:26.616Z,99776.31
2018-12-31T16:24:32.591Z,99786.42
2018-12-31T16:28:38.309Z,99781.70
2018-12-31T16:32:43.972Z,99780.13
2018-12-31T16:36:49.748Z,99787.48
2018-12-31T16:40:55.447Z,99781.67
2018-12-31T16:45:01.135Z,99785.00
2018-12-31T16:49:08.450Z,99788.73
2018-12-31T16:53:14.145Z,99780.15
2018-12-31T16:57:20.107Z,99773.94
2018-12-31T17:01:25.883Z,99779.95
2018-12-31T17:05:31.560Z,99771.30
2018-12-31T17:09:37.268Z,99768.77
2018-12-31T17:13:43.035Z,99773.42
2018-12-31T17:17:48.740Z,99771.27
2018-12-31T17:21:54.441Z,99771.97
2018-12-31T17:26:00.149Z,99778.17
2018-12-31T17:30:07.791Z,99781.88
2018-12-31T17:34:13.491Z,99794.17
2018-12-31T17:38:19.202Z,99795.60
2018-12-31T17:42:24.907Z,99791.34
2018-12-31T17:46:30.594Z,99783.73
2018-12-31T17:50:36.296Z,99792.32
2018-12-31T17:54:42.013Z,99797.59
2018-12-31T17:58:47.707Z,99795.46
2018-12-31T18:02:53.871Z,99795.45
2018-12-31T18:06:59.557Z,99796.02
2018-12-31T18:11:05.283Z,99801.42
2018-12-31T18:15:11.015Z,99804.48
2018-12-31T18:19:16.722Z,99805.48
2018-12-31T18:23:22.431Z,99806.27
2018-12-31T18:27:28.127Z,99807.42
2018-12-31T18:31:33.875Z,99803.70
2018-12-31T18:35:39.955Z,99801.56
2018-12-31T18:39:49.362Z,99793.11
2018-12-31T18:43:54.048Z,99793.90
2018-12-31T18:47:59.799Z,99791.94
2018-12-31T18:52:50.408Z,99798.76
2018-12-31T18:56:56.116Z,99799.30
2018-12-31T19:01:01.914Z,99800.42
2018-12-31T19:05:07.890Z,99801.08
2018-12-31T19:09:13.584Z,99805.78
2018-12-31T19:13:19.296Z,99805.97
2018-12-31T19:17:25.003Z,99806.67
2018-12-31T19:21:30.705Z,99797.30
2018-12-31T19:25:36.387Z,99808.57
2018-12-31T19:29:42.173Z,99801.84
2018-12-31T19:33:47.919Z,99810.34
2018-12-31T19:37:53.959Z,99799.39
2018-12-31T19:41:59.643Z,99801.13
2018-12-31T19:46:05.344Z,99806.71
2018-12-31T19:50:12.602Z,99808.11
2018-12-31T19:54:18.296Z,99803.73
2018-12-31T19:58:24.140Z,99809.45
2018-12-31T20:02:29.868Z,99807.16
2018-12-31T20:06:35.581Z,99806.71
2018-12-31T20:10:41.287Z,99810.60
2018-12-31T20:14:46.987Z,99795.83
2018-12-31T20:18:52.671Z,99779.93
2018-12-31T20:22:58.391Z,99770.61
2018-12-31T20:27:04.081Z,99774.69
2018-12-31T20:31:10.057Z,99766.84
2018-12-31T20:35:15.779Z,99781.11
2018-12-31T20:39:21.458Z,99768.48
2018-12-31T20:43:27.168Z,99779.37
2018-12-31T20:47:32.900Z,99772.59
2018-12-31T20:51:38.660Z,99768.06
2018-12-31T20:55:44.365Z,99767.56
2018-12-31T20:59:50.041Z,99767.03
2018-12-31T21:03:55.744Z,99761.19
2018-12-31T21:08:01.452Z,99762.94
2018-12-31T21:12:07.427Z,99757.01
2018-12-31T21:16:13.122Z,99759.56
2018-12-31T21:20:20.799Z,99758.10
2018-12-31T21:24:26.293Z,99756.52
2018-12-31T21:28:32.038Z,99750.37
2018-12-31T21:32:37.833Z,99747.44
2018-12-31T21:36:43.539Z,99749.83
2018-12-31T21:40:50.185Z,99742.20
2018-12-31T21:44:59.175Z,99745.77
2018-12-31T21:49:04.908Z,99747.97
2018-12-31T21:53:10.603Z,99753.28
2018-12-31T21:57:18.138Z,99750.80
2018-12-31T22:01:23.709Z,99751.03
2018-12-31T22:05:29.398Z,99744.05
2018-12-31T22:09:35.090Z,99742.36
2018-12-31T22:13:40.785Z,99731.39
2018-12-31T22:17:46.466Z,99739.22
2018-12-31T22:21:52.156Z,99728.91
2018-12-31T22:26:48.145Z,99730.27
2018-12-31T22:30:53.918Z,99734.64
2018-12-31T22:35:50.818Z,99732.02
2018-12-31T22:39:56.516Z,99728.36
2018-12-31T22:44:02.198Z,99733.43
2018-12-31T22:48:07.895Z,99744.16
2018-12-31T22:52:13.605Z,99737.31
2018-12-31T22:56:19.579Z,99733.77
2018-12-31T23:00:27.152Z,99731.79
2018-12-31T23:04:34.442Z,99733.66
2018-12-31T23:08:40.159Z,99733.21
2018-12-31T23:12:45.848Z,99734.27
2018-12-31T23:16:52.767Z,99737.83
2018-12-31T23:20:58.473Z,99742.31
2018-12-31T23:25:04.331Z,99739.33
2018-12-31T23:29:11.568Z,99739.56
2018-12-31T23:33:17.347Z,99743.48
2018-12-31T23:37:23.040Z,99736.70
2018-12-31T23:41:28.736Z,99736.39
2018-12-31T23:45:34.502Z,99733.13
2018-12-31T23:49:40.275Z,99727.36
2018-12-31T23:53:45.987Z,99728.45
2018-12-31T23:57:51.696Z,99722.40
